sensor_id;sensor_type;location;lat;lon;timestamp;P1;durP1;ratioP1;P2;durP2;ratioP2
17917;SDS011;9084;50.956;3.106;2023-06-14T00:01:11;6.43;;;4.35;;
17917;SDS011;9084;50.956;3.106;2023-06-14T00:03:38;6.72;;;4.28;;
17917;SDS011;9084;50.956;3.106;2023-06-14T00:06:04;5.28;;;4.68;;
17917;SDS011;9084;50.956;3.106;2023-06-14T00:08:32;6.45;;;3.88;;
17917;SDS011;9084;50.956;3.106;2023-06-14T00:10:57;6.22;;;4.13;;
17917;SDS011;9084;50.956;3.106;2023-06-14T00:13:23;6.93;;;4.57;;
17917;SDS011;9084;50.956;3.106;2023-06-14T00:15:52;5.25;;;4.30;;
17917;SDS011;9084;50.956;3.106;2023-06-14T00:18:20;5.10;;;4.57;;
17917;SDS011;9084;50.956;3.106;2023-06-14T00:20:49;8.63;;;4.53;;
17917;SDS011;9084;50.956;3.106;2023-06-14T00:23:16;6.03;;;4.30;;
17917;SDS011;9084;50.956;3.106;2023-06-14T00:25:44;11.40;;;5.07;;
17917;SDS011;9084;50.956;3.106;2023-06-14T00:28:09;5.70;;;4.32;;
17917;SDS011;9084;50.956;3.106;2023-06-14T00:30:35;6.55;;;5.20;;
17917;SDS011;9084;50.956;3.106;2023-06-14T00:33:03;4.82;;;4.40;;
17917;SDS011;9084;50.956;3.106;2023-06-14T00:35:29;5.82;;;5.30;;
17917;SDS011;9084;50.956;3.106;2023-06-14T00:37:57;5.03;;;4.32;;
17917;SDS011;9084;50.956;3.106;2023-06-14T00:40:23;6.03;;;4.90;;
17917;SDS011;9084;50.956;3.106;2023-06-14T00:42:49;5.25;;;4.80;;
17917;SDS011;9084;50.956;3.106;2023-06-14T00:45:15;5.50;;;5.00;;
17917;SDS011;9084;50.956;3.106;2023-06-14T00:47:43;4.93;;;4.45;;
17917;SDS011;9084;50.956;3.106;2023-06-14T00:50:15;7.97;;;5.28;;
17917;SDS011;9084;50.956;3.106;2023-06-14T00:52:41;9.88;;;5.20;;
17917;SDS011;9084;50.956;3.106;2023-06-14T00:55:09;5.60;;;5.10;;
17917;SDS011;9084;50.956;3.106;2023-06-14T00:57:35;5.35;;;4.85;;
17917;SDS011;9084;50.956;3.106;2023-06-14T01:00:02;5.97;;;5.32;;
17917;SDS011;9084;50.956;3.106;2023-06-14T01:02:29;5.65;;;5.03;;
17917;SDS011;9084;50.956;3.106;2023-06-14T01:04:55;5.57;;;5.00;;
17917;SDS011;9084;50.956;3.106;2023-06-14T01:07:27;6.47;;;5.88;;
17917;SDS011;9084;50.956;3.106;2023-06-14T01:15:21;10.30;;;6.15;;
17917;SDS011;9084;50.956;3.106;2023-06-14T01:17:52;5.72;;;4.95;;
17917;SDS011;9084;50.956;3.106;2023-06-14T01:20:21;6.25;;;5.65;;
17917;SDS011;9084;50.956;3.106;2023-06-14T01:22:50;10.60;;;5.60;;
17917;SDS011;9084;50.956;3.106;2023-06-14T01:25:17;7.18;;;5.93;;
17917;SDS011;9084;50.956;3.106;2023-06-14T01:27:51;7.10;;;5.80;;
17917;SDS011;9084;50.956;3.106;2023-06-14T01:30:20;7.00;;;6.25;;
17917;SDS011;9084;50.956;3.106;2023-06-14T01:32:48;6.55;;;6.00;;
17917;SDS011;9084;50.956;3.106;2023-06-14T01:35:17;6.50;;;5.90;;
17917;SDS011;9084;50.956;3.106;2023-06-14T01:37:44;6.65;;;6.05;;
17917;SDS011;9084;50.956;3.106;2023-06-14T01:40:17;7.82;;;5.45;;
17917;SDS011;9084;50.956;3.106;2023-06-14T01:42:45;6.57;;;5.97;;
17917;SDS011;9084;50.956;3.106;2023-06-14T01:45:12;10.23;;;6.05;;
17917;SDS011;9084;50.956;3.106;2023-06-14T01:47:39;6.43;;;5.70;;
17917;SDS011;9084;50.956;3.106;2023-06-14T01:50:08;6.20;;;5.68;;
17917;SDS011;9084;50.956;3.106;2023-06-14T01:52:37;6.72;;;5.85;;
17917;SDS011;9084;50.956;3.106;2023-06-14T01:55:06;6.85;;;6.28;;
17917;SDS011;9084;50.956;3.106;2023-06-14T01:57:35;6.13;;;5.63;;
17917;SDS011;9084;50.956;3.106;2023-06-14T02:00:01;6.85;;;6.15;;
17917;SDS011;9084;50.956;3.106;2023-06-14T02:02:28;6.60;;;5.88;;
17917;SDS011;9084;50.956;3.106;2023-06-14T02:04:54;7.70;;;5.65;;
17917;SDS011;9084;50.956;3.106;2023-06-14T02:07:24;7.63;;;6.53;;
17917;SDS011;9084;50.956;3.106;2023-06-14T02:09:52;7.72;;;6.65;;
17917;SDS011;9084;50.956;3.106;2023-06-14T02:12:18;6.95;;;6.30;;
17917;SDS011;9084;50.956;3.106;2023-06-14T02:14:43;7.22;;;6.47;;
17917;SDS011;9084;50.956;3.106;2023-06-14T02:17:11;8.27;;;6.15;;
17917;SDS011;9084;50.956;3.106;2023-06-14T02:19:37;7.20;;;6.00;;
17917;SDS011;9084;50.956;3.106;2023-06-14T02:22:02;7.43;;;5.97;;
17917;SDS011;9084;50.956;3.106;2023-06-14T02:24:28;8.10;;;6.82;;
17917;SDS011;9084;50.956;3.106;2023-06-14T02:26:54;7.57;;;6.10;;
17917;SDS011;9084;50.956;3.106;2023-06-14T02:29:20;6.30;;;5.80;;
17917;SDS011;9084;50.956;3.106;2023-06-14T02:31:48;7.07;;;6.35;;
17917;SDS011;9084;50.956;3.106;2023-06-14T02:34:14;7.78;;;5.97;;
17917;SDS011;9084;50.956;3.106;2023-06-14T02:36:42;9.27;;;7.20;;
17917;SDS011;9084;50.956;3.106;2023-06-14T02:39:10;8.73;;;6.32;;
17917;SDS011;9084;50.956;3.106;2023-06-14T02:41:39;7.00;;;6.30;;
17917;SDS011;9084;50.956;3.106;2023-06-14T02:44:05;8.13;;;6.60;;
17917;SDS011;9084;50.956;3.106;2023-06-14T02:46:31;6.97;;;6.25;;
17917;SDS011;9084;50.956;3.106;2023-06-14T02:48:57;7.70;;;6.88;;
17917;SDS011;9084;50.956;3.106;2023-06-14T02:51:25;7.32;;;5.75;;
17917;SDS011;9084;50.956;3.106;2023-06-14T02:53:50;7.05;;;6.45;;
17917;SDS011;9084;50.956;3.106;2023-06-14T02:56:16;6.72;;;6.00;;
17917;SDS011;9084;50.956;3.106;2023-06-14T02:58:44;6.90;;;6.28;;
17917;SDS011;9084;50.956;3.106;2023-06-14T03:01:13;9.50;;;6.40;;
17917;SDS011;9084;50.956;3.106;2023-06-14T03:03:39;7.22;;;6.40;;
17917;SDS011;9084;50.956;3.106;2023-06-14T03:06:07;8.00;;;6.80;;
17917;SDS011;9084;50.956;3.106;2023-06-14T03:08:38;9.00;;;6.47;;
17917;SDS011;9084;50.956;3.106;2023-06-14T03:11:06;8.30;;;6.95;;
17917;SDS011;9084;50.956;3.106;2023-06-14T03:13:32;7.45;;;6.78;;
17917;SDS011;9084;50.956;3.106;2023-06-14T03:16:01;7.47;;;6.32;;
17917;SDS011;9084;50.956;3.106;2023-06-14T03:18:29;7.35;;;6.68;;
17917;SDS011;9084;50.956;3.106;2023-06-14T03:21:02;7.40;;;6.65;;
17917;SDS011;9084;50.956;3.106;2023-06-14T03:23:31;6.75;;;6.15;;
17917;SDS011;9084;50.956;3.106;2023-06-14T03:25:56;6.82;;;6.13;;
17917;SDS011;9084;50.956;3.106;2023-06-14T03:28:25;7.28;;;6.35;;
17917;SDS011;9084;50.956;3.106;2023-06-14T03:30:55;8.23;;;6.60;;
17917;SDS011;9084;50.956;3.106;2023-06-14T03:33:20;8.45;;;6.70;;
17917;SDS011;9084;50.956;3.106;2023-06-14T03:35:46;6.57;;;5.97;;
17917;SDS011;9084;50.956;3.106;2023-06-14T03:38:12;7.53;;;6.47;;
17917;SDS011;9084;50.956;3.106;2023-06-14T03:40:40;9.73;;;6.68;;
17917;SDS011;9084;50.956;3.106;2023-06-14T03:43:05;6.65;;;6.05;;
17917;SDS011;9084;50.956;3.106;2023-06-14T03:45:31;6.20;;;5.65;;
17917;SDS011;9084;50.956;3.106;2023-06-14T03:47:57;7.15;;;6.45;;
17917;SDS011;9084;50.956;3.106;2023-06-14T03:50:23;7.10;;;6.50;;
17917;SDS011;9084;50.956;3.106;2023-06-14T03:52:52;7.68;;;6.45;;
17917;SDS011;9084;50.956;3.106;2023-06-14T03:55:18;7.13;;;6.47;;
17917;SDS011;9084;50.956;3.106;2023-06-14T03:57:44;6.80;;;6.20;;
17917;SDS011;9084;50.956;3.106;2023-06-14T04:00:10;6.95;;;6.35;;
17917;SDS011;9084;50.956;3.106;2023-06-14T04:02:37;8.38;;;6.57;;
17917;SDS011;9084;50.956;3.106;2023-06-14T04:05:03;8.75;;;6.18;;
17917;SDS011;9084;50.956;3.106;2023-06-14T04:07:33;8.57;;;6.43;;
17917;SDS011;9084;50.956;3.106;2023-06-14T04:10:04;7.25;;;6.18;;
17917;SDS011;9084;50.956;3.106;2023-06-14T04:12:31;7.88;;;5.93;;
17917;SDS011;9084;50.956;3.106;2023-06-14T04:14:57;8.35;;;6.47;;
17917;SDS011;9084;50.956;3.106;2023-06-14T04:17:23;7.28;;;6.68;;
17917;SDS011;9084;50.956;3.106;2023-06-14T04:19:48;9.02;;;6.35;;
17917;SDS011;9084;50.956;3.106;2023-06-14T04:22:14;7.40;;;6.03;;
17917;SDS011;9084;50.956;3.106;2023-06-14T04:24:40;9.52;;;6.90;;
17917;SDS011;9084;50.956;3.106;2023-06-14T04:27:07;13.00;;;6.63;;
17917;SDS011;9084;50.956;3.106;2023-06-14T04:29:33;8.25;;;6.03;;
17917;SDS011;9084;50.956;3.106;2023-06-14T04:31:58;7.40;;;6.43;;
17917;SDS011;9084;50.956;3.106;2023-06-14T04:34:27;9.30;;;6.32;;
17917;SDS011;9084;50.956;3.106;2023-06-14T04:36:57;8.00;;;6.53;;
17917;SDS011;9084;50.956;3.106;2023-06-14T04:39:27;8.77;;;6.97;;
17917;SDS011;9084;50.956;3.106;2023-06-14T04:41:55;7.50;;;6.40;;
17917;SDS011;9084;50.956;3.106;2023-06-14T04:44:22;9.75;;;6.93;;
17917;SDS011;9084;50.956;3.106;2023-06-14T04:46:55;9.13;;;7.05;;
17917;SDS011;9084;50.956;3.106;2023-06-14T04:49:24;10.35;;;7.90;;
17917;SDS011;9084;50.956;3.106;2023-06-14T04:51:51;12.23;;;8.45;;
17917;SDS011;9084;50.956;3.106;2023-06-14T04:54:22;9.55;;;6.93;;
17917;SDS011;9084;50.956;3.106;2023-06-14T04:56:51;9.40;;;7.95;;
17917;SDS011;9084;50.956;3.106;2023-06-14T04:59:18;10.98;;;7.80;;
17917;SDS011;9084;50.956;3.106;2023-06-14T05:01:44;8.98;;;7.10;;
17917;SDS011;9084;50.956;3.106;2023-06-14T05:04:13;7.68;;;6.50;;
17917;SDS011;9084;50.956;3.106;2023-06-14T05:06:44;8.32;;;6.90;;
17917;SDS011;9084;50.956;3.106;2023-06-14T05:09:13;9.05;;;6.60;;
17917;SDS011;9084;50.956;3.106;2023-06-14T05:11:39;8.40;;;5.53;;
17917;SDS011;9084;50.956;3.106;2023-06-14T05:14:07;8.20;;;5.93;;
17917;SDS011;9084;50.956;3.106;2023-06-14T05:16:33;5.97;;;4.85;;
17917;SDS011;9084;50.956;3.106;2023-06-14T05:18:58;7.05;;;5.53;;
17917;SDS011;9084;50.956;3.106;2023-06-14T05:21:27;6.63;;;5.55;;
17917;SDS011;9084;50.956;3.106;2023-06-14T05:23:57;8.27;;;5.78;;
17917;SDS011;9084;50.956;3.106;2023-06-14T05:26:22;11.18;;;5.78;;
17917;SDS011;9084;50.956;3.106;2023-06-14T05:28:56;6.13;;;5.50;;
17917;SDS011;9084;50.956;3.106;2023-06-14T05:31:25;8.85;;;5.95;;
17917;SDS011;9084;50.956;3.106;2023-06-14T05:33:50;6.90;;;6.03;;
17917;SDS011;9084;50.956;3.106;2023-06-14T05:36:16;8.02;;;6.28;;
17917;SDS011;9084;50.956;3.106;2023-06-14T05:38:43;9.32;;;6.28;;
17917;SDS011;9084;50.956;3.106;2023-06-14T05:41:08;6.72;;;5.97;;
17917;SDS011;9084;50.956;3.106;2023-06-14T05:43:34;6.90;;;5.95;;
17917;SDS011;9084;50.956;3.106;2023-06-14T05:46:00;6.40;;;5.80;;
17917;SDS011;9084;50.956;3.106;2023-06-14T05:48:28;9.93;;;6.35;;
17917;SDS011;9084;50.956;3.106;2023-06-14T05:50:54;9.55;;;5.97;;
17917;SDS011;9084;50.956;3.106;2023-06-14T05:53:22;10.02;;;6.55;;
17917;SDS011;9084;50.956;3.106;2023-06-14T05:55:49;7.35;;;6.47;;
17917;SDS011;9084;50.956;3.106;2023-06-14T05:58:18;9.02;;;5.88;;
17917;SDS011;9084;50.956;3.106;2023-06-14T06:00:44;7.32;;;6.30;;
17917;SDS011;9084;50.956;3.106;2023-06-14T06:03:10;9.05;;;6.75;;
17917;SDS011;9084;50.956;3.106;2023-06-14T06:05:38;9.68;;;6.18;;
17917;SDS011;9084;50.956;3.106;2023-06-14T06:08:06;7.63;;;6.07;;
17917;SDS011;9084;50.956;3.106;2023-06-14T06:10:34;7.28;;;6.57;;
17917;SDS011;9084;50.956;3.106;2023-06-14T06:13:00;9.25;;;6.57;;
17917;SDS011;9084;50.956;3.106;2023-06-14T06:15:25;7.47;;;5.90;;
17917;SDS011;9084;50.956;3.106;2023-06-14T06:17:53;7.00;;;6.13;;
17917;SDS011;9084;50.956;3.106;2023-06-14T06:20:21;11.57;;;6.47;;
17917;SDS011;9084;50.956;3.106;2023-06-14T06:22:52;12.93;;;6.03;;
17917;SDS011;9084;50.956;3.106;2023-06-14T06:25:18;8.80;;;6.10;;
17917;SDS011;9084;50.956;3.106;2023-06-14T06:27:44;8.48;;;5.88;;
17917;SDS011;9084;50.956;3.106;2023-06-14T06:30:10;6.53;;;5.50;;
17917;SDS011;9084;50.956;3.106;2023-06-14T06:32:36;6.13;;;5.47;;
17917;SDS011;9084;50.956;3.106;2023-06-14T06:35:04;6.05;;;5.50;;
17917;SDS011;9084;50.956;3.106;2023-06-14T06:37:32;7.05;;;6.30;;
17917;SDS011;9084;50.956;3.106;2023-06-14T06:39:57;8.98;;;5.65;;
17917;SDS011;9084;50.956;3.106;2023-06-14T06:42:24;9.75;;;6.00;;
17917;SDS011;9084;50.956;3.106;2023-06-14T06:44:49;6.45;;;5.65;;
17917;SDS011;9084;50.956;3.106;2023-06-14T06:47:15;8.70;;;5.00;;
17917;SDS011;9084;50.956;3.106;2023-06-14T06:49:41;6.10;;;5.50;;
17917;SDS011;9084;50.956;3.106;2023-06-14T06:52:06;6.20;;;5.53;;
17917;SDS011;9084;50.956;3.106;2023-06-14T06:54:35;7.70;;;5.53;;
17917;SDS011;9084;50.956;3.106;2023-06-14T06:57:00;7.93;;;5.75;;
17917;SDS011;9084;50.956;3.106;2023-06-14T06:59:26;6.38;;;5.20;;
17917;SDS011;9084;50.956;3.106;2023-06-14T07:01:57;6.63;;;4.90;;
17917;SDS011;9084;50.956;3.106;2023-06-14T07:04:23;8.43;;;5.95;;
17917;SDS011;9084;50.956;3.106;2023-06-14T07:06:51;6.13;;;4.57;;
17917;SDS011;9084;50.956;3.106;2023-06-14T07:09:16;6.00;;;5.32;;
17917;SDS011;9084;50.956;3.106;2023-06-14T07:11:44;8.27;;;5.55;;
17917;SDS011;9084;50.956;3.106;2023-06-14T07:14:11;6.45;;;5.47;;
17917;SDS011;9084;50.956;3.106;2023-06-14T07:16:39;6.57;;;5.63;;
17917;SDS011;9084;50.956;3.106;2023-06-14T07:19:06;6.47;;;5.35;;
17917;SDS011;9084;50.956;3.106;2023-06-14T07:21:34;7.72;;;4.72;;
17917;SDS011;9084;50.956;3.106;2023-06-14T07:24:00;13.05;;;6.22;;
17917;SDS011;9084;50.956;3.106;2023-06-14T07:26:27;6.13;;;5.30;;
17917;SDS011;9084;50.956;3.106;2023-06-14T07:28:53;7.40;;;5.60;;
17917;SDS011;9084;50.956;3.106;2023-06-14T07:31:19;6.20;;;5.40;;
17917;SDS011;9084;50.956;3.106;2023-06-14T07:33:45;8.32;;;6.30;;
17917;SDS011;9084;50.956;3.106;2023-06-14T07:36:13;6.15;;;5.60;;
17917;SDS011;9084;50.956;3.106;2023-06-14T07:38:38;7.82;;;5.25;;
17917;SDS011;9084;50.956;3.106;2023-06-14T07:41:08;6.93;;;6.03;;
17917;SDS011;9084;50.956;3.106;2023-06-14T07:43:36;6.38;;;5.78;;
17917;SDS011;9084;50.956;3.106;2023-06-14T07:46:04;7.32;;;6.10;;
17917;SDS011;9084;50.956;3.106;2023-06-14T07:48:30;7.72;;;5.18;;
17917;SDS011;9084;50.956;3.106;2023-06-14T07:50:56;8.75;;;5.53;;
17917;SDS011;9084;50.956;3.106;2023-06-14T07:53:28;8.10;;;5.57;;
17917;SDS011;9084;50.956;3.106;2023-06-14T07:55:58;6.18;;;5.57;;
17917;SDS011;9084;50.956;3.106;2023-06-14T07:58:25;6.13;;;4.95;;
17917;SDS011;9084;50.956;3.106;2023-06-14T08:00:50;6.63;;;5.30;;
17917;SDS011;9084;50.956;3.106;2023-06-14T08:03:16;6.78;;;5.25;;
17917;SDS011;9084;50.956;3.106;2023-06-14T08:05:43;7.75;;;5.50;;
17917;SDS011;9084;50.956;3.106;2023-06-14T08:08:08;6.22;;;5.00;;
17917;SDS011;9084;50.956;3.106;2023-06-14T08:10:37;5.22;;;4.82;;
17917;SDS011;9084;50.956;3.106;2023-06-14T08:13:05;6.07;;;4.43;;
17917;SDS011;9084;50.956;3.106;2023-06-14T08:15:30;6.65;;;5.38;;
17917;SDS011;9084;50.956;3.106;2023-06-14T08:17:57;9.38;;;5.75;;
17917;SDS011;9084;50.956;3.106;2023-06-14T08:20:25;6.05;;;5.45;;
17917;SDS011;9084;50.956;3.106;2023-06-14T08:22:51;7.32;;;6.35;;
17917;SDS011;9084;50.956;3.106;2023-06-14T08:25:20;10.65;;;6.13;;
17917;SDS011;9084;50.956;3.106;2023-06-14T08:27:46;7.20;;;5.75;;
17917;SDS011;9084;50.956;3.106;2023-06-14T08:30:11;8.25;;;5.22;;
17917;SDS011;9084;50.956;3.106;2023-06-14T08:32:43;7.55;;;5.75;;
17917;SDS011;9084;50.956;3.106;2023-06-14T08:35:12;8.30;;;5.95;;
17917;SDS011;9084;50.956;3.106;2023-06-14T08:37:40;7.82;;;5.63;;
17917;SDS011;9084;50.956;3.106;2023-06-14T08:40:17;6.85;;;5.63;;
17917;SDS011;9084;50.956;3.106;2023-06-14T08:42:46;8.15;;;5.80;;
17917;SDS011;9084;50.956;3.106;2023-06-14T08:45:20;7.20;;;5.07;;
17917;SDS011;9084;50.956;3.106;2023-06-14T08:47:47;6.82;;;5.13;;
17917;SDS011;9084;50.956;3.106;2023-06-14T08:50:18;6.20;;;4.95;;
17917;SDS011;9084;50.956;3.106;2023-06-14T08:52:46;9.98;;;5.30;;
17917;SDS011;9084;50.956;3.106;2023-06-14T08:55:18;8.45;;;4.15;;
17917;SDS011;9084;50.956;3.106;2023-06-14T08:57:45;8.55;;;5.30;;
17917;SDS011;9084;50.956;3.106;2023-06-14T09:00:14;7.05;;;4.35;;
17917;SDS011;9084;50.956;3.106;2023-06-14T09:02:43;7.97;;;4.50;;
17917;SDS011;9084;50.956;3.106;2023-06-14T09:05:13;5.00;;;4.38;;
17917;SDS011;9084;50.956;3.106;2023-06-14T09:07:43;7.32;;;4.47;;
17917;SDS011;9084;50.956;3.106;2023-06-14T09:10:10;6.82;;;4.78;;
17917;SDS011;9084;50.956;3.106;2023-06-14T09:12:37;6.57;;;4.38;;
17917;SDS011;9084;50.956;3.106;2023-06-14T09:15:04;5.20;;;3.90;;
17917;SDS011;9084;50.956;3.106;2023-06-14T09:17:33;5.28;;;4.30;;
17917;SDS011;9084;50.956;3.106;2023-06-14T09:20:02;6.93;;;3.90;;
17917;SDS011;9084;50.956;3.106;2023-06-14T09:22:34;4.95;;;4.03;;
17917;SDS011;9084;50.956;3.106;2023-06-14T09:25:00;5.22;;;3.63;;
17917;SDS011;9084;50.956;3.106;2023-06-14T09:27:26;4.28;;;3.90;;
17917;SDS011;9084;50.956;3.106;2023-06-14T09:29:55;5.80;;;3.95;;
17917;SDS011;9084;50.956;3.106;2023-06-14T09:32:21;5.03;;;4.00;;
17917;SDS011;9084;50.956;3.106;2023-06-14T09:34:50;7.65;;;3.70;;
17917;SDS011;9084;50.956;3.106;2023-06-14T09:37:31;7.43;;;4.10;;
17917;SDS011;9084;50.956;3.106;2023-06-14T09:40:00;6.03;;;3.92;;
17917;SDS011;9084;50.956;3.106;2023-06-14T09:42:28;6.97;;;3.50;;
17917;SDS011;9084;50.956;3.106;2023-06-14T09:44:55;5.30;;;3.97;;
17917;SDS011;9084;50.956;3.106;2023-06-14T09:47:24;7.00;;;3.88;;
17917;SDS011;9084;50.956;3.106;2023-06-14T09:49:50;4.38;;;3.88;;
17917;SDS011;9084;50.956;3.106;2023-06-14T09:52:20;6.80;;;3.90;;
17917;SDS011;9084;50.956;3.106;2023-06-14T09:54:48;4.85;;;4.00;;
17917;SDS011;9084;50.956;3.106;2023-06-14T09:57:15;4.10;;;3.70;;
17917;SDS011;9084;50.956;3.106;2023-06-14T09:59:45;5.30;;;4.13;;
17917;SDS011;9084;50.956;3.106;2023-06-14T10:02:26;4.43;;;3.70;;
17917;SDS011;9084;50.956;3.106;2023-06-14T10:05:05;5.47;;;4.00;;
17917;SDS011;9084;50.956;3.106;2023-06-14T10:07:35;6.18;;;3.83;;
17917;SDS011;9084;50.956;3.106;2023-06-14T10:10:03;4.32;;;3.53;;
17917;SDS011;9084;50.956;3.106;2023-06-14T10:12:29;4.40;;;3.78;;
17917;SDS011;9084;50.956;3.106;2023-06-14T10:14:56;4.38;;;3.80;;
17917;SDS011;9084;50.956;3.106;2023-06-14T10:23:00;4.00;;;3.67;;
17917;SDS011;9084;50.956;3.106;2023-06-14T10:25:31;7.00;;;3.88;;
17917;SDS011;9084;50.956;3.106;2023-06-14T10:28:05;5.28;;;3.83;;
17917;SDS011;9084;50.956;3.106;2023-06-14T10:31:08;6.45;;;4.05;;
17917;SDS011;9084;50.956;3.106;2023-06-14T10:33:48;3.67;;;3.30;;
17917;SDS011;9084;50.956;3.106;2023-06-14T10:39:16;7.55;;;4.00;;
17917;SDS011;9084;50.956;3.106;2023-06-14T10:41:50;6.30;;;3.90;;
17917;SDS011;9084;50.956;3.106;2023-06-14T10:46:46;8.93;;;4.50;;
17917;SDS011;9084;50.956;3.106;2023-06-14T10:49:19;7.43;;;4.35;;
17917;SDS011;9084;50.956;3.106;2023-06-14T10:51:54;4.57;;;3.67;;
17917;SDS011;9084;50.956;3.106;2023-06-14T10:54:23;6.60;;;4.03;;
17917;SDS011;9084;50.956;3.106;2023-06-14T10:56:52;3.85;;;3.55;;
17917;SDS011;9084;50.956;3.106;2023-06-14T10:59:20;4.45;;;3.85;;
17917;SDS011;9084;50.956;3.106;2023-06-14T11:04:51;6.10;;;4.05;;
17917;SDS011;9084;50.956;3.106;2023-06-14T11:12:35;7.00;;;3.95;;
17917;SDS011;9084;50.956;3.106;2023-06-14T11:15:03;4.25;;;3.78;;
17917;SDS011;9084;50.956;3.106;2023-06-14T11:17:30;3.83;;;3.50;;
17917;SDS011;9084;50.956;3.106;2023-06-14T11:20:10;4.72;;;4.03;;
17917;SDS011;9084;50.956;3.106;2023-06-14T11:22:44;4.10;;;3.78;;
17917;SDS011;9084;50.956;3.106;2023-06-14T11:25:11;6.57;;;3.80;;
17917;SDS011;9084;50.956;3.106;2023-06-14T11:27:37;5.18;;;3.67;;
17917;SDS011;9084;50.956;3.106;2023-06-14T11:30:03;4.88;;;3.58;;
17917;SDS011;9084;50.956;3.106;2023-06-14T11:32:31;3.90;;;3.53;;
17917;SDS011;9084;50.956;3.106;2023-06-14T11:34:59;5.63;;;3.85;;
17917;SDS011;9084;50.956;3.106;2023-06-14T11:37:29;4.43;;;4.03;;
17917;SDS011;9084;50.956;3.106;2023-06-14T11:39:59;5.90;;;3.35;;
17917;SDS011;9084;50.956;3.106;2023-06-14T11:42:28;6.25;;;3.33;;
17917;SDS011;9084;50.956;3.106;2023-06-14T11:44:57;4.05;;;3.60;;
17917;SDS011;9084;50.956;3.106;2023-06-14T11:47:22;4.82;;;3.85;;
17917;SDS011;9084;50.956;3.106;2023-06-14T11:49:50;3.80;;;3.47;;
17917;SDS011;9084;50.956;3.106;2023-06-14T11:52:16;4.07;;;3.65;;
17917;SDS011;9084;50.956;3.106;2023-06-14T11:54:43;6.68;;;3.65;;
17917;SDS011;9084;50.956;3.106;2023-06-14T11:57:11;4.95;;;3.65;;
17917;SDS011;9084;50.956;3.106;2023-06-14T11:59:40;4.72;;;3.70;;
17917;SDS011;9084;50.956;3.106;2023-06-14T12:02:06;4.18;;;3.30;;
17917;SDS011;9084;50.956;3.106;2023-06-14T12:04:32;5.72;;;3.75;;
17917;SDS011;9084;50.956;3.106;2023-06-14T12:07:11;4.25;;;3.40;;
17917;SDS011;9084;50.956;3.106;2023-06-14T12:09:42;4.20;;;3.72;;
17917;SDS011;9084;50.956;3.106;2023-06-14T12:12:31;4.35;;;3.33;;
17917;SDS011;9084;50.956;3.106;2023-06-14T12:15:03;4.78;;;3.35;;
17917;SDS011;9084;50.956;3.106;2023-06-14T12:17:35;5.63;;;3.80;;
17917;SDS011;9084;50.956;3.106;2023-06-14T12:20:09;4.78;;;3.53;;
17917;SDS011;9084;50.956;3.106;2023-06-14T12:22:38;4.78;;;3.83;;
17917;SDS011;9084;50.956;3.106;2023-06-14T12:25:11;6.15;;;3.55;;
17917;SDS011;9084;50.956;3.106;2023-06-14T12:27:58;7.10;;;3.47;;
17917;SDS011;9084;50.956;3.106;2023-06-14T12:30:29;6.53;;;3.88;;
17917;SDS011;9084;50.956;3.106;2023-06-14T12:32:55;4.85;;;3.35;;
17917;SDS011;9084;50.956;3.106;2023-06-14T12:35:21;6.97;;;3.50;;
17917;SDS011;9084;50.956;3.106;2023-06-14T12:37:48;4.10;;;3.45;;
17917;SDS011;9084;50.956;3.106;2023-06-14T12:40:14;4.93;;;3.75;;
17917;SDS011;9084;50.956;3.106;2023-06-14T12:42:44;5.72;;;3.40;;
17917;SDS011;9084;50.956;3.106;2023-06-14T12:45:12;7.13;;;3.85;;
17917;SDS011;9084;50.956;3.106;2023-06-14T12:47:38;4.00;;;3.33;;
17917;SDS011;9084;50.956;3.106;2023-06-14T12:50:04;3.72;;;3.35;;
17917;SDS011;9084;50.956;3.106;2023-06-14T12:52:30;4.53;;;2.85;;
17917;SDS011;9084;50.956;3.106;2023-06-14T12:55:00;5.18;;;3.80;;
17917;SDS011;9084;50.956;3.106;2023-06-14T12:57:28;4.43;;;3.50;;
17917;SDS011;9084;50.956;3.106;2023-06-14T12:59:56;7.10;;;3.97;;
17917;SDS011;9084;50.956;3.106;2023-06-14T13:02:21;4.35;;;3.97;;
17917;SDS011;9084;50.956;3.106;2023-06-14T13:04:49;5.55;;;3.50;;
17917;SDS011;9084;50.956;3.106;2023-06-14T13:07:17;5.68;;;3.80;;
17917;SDS011;9084;50.956;3.106;2023-06-14T13:09:43;5.85;;;3.60;;
17917;SDS011;9084;50.956;3.106;2023-06-14T13:12:11;7.65;;;3.30;;
17917;SDS011;9084;50.956;3.106;2023-06-14T13:14:37;8.18;;;3.33;;
17917;SDS011;9084;50.956;3.106;2023-06-14T13:17:04;4.47;;;3.50;;
17917;SDS011;9084;50.956;3.106;2023-06-14T13:19:30;4.20;;;3.45;;
17917;SDS011;9084;50.956;3.106;2023-06-14T13:21:56;7.47;;;3.58;;
17917;SDS011;9084;50.956;3.106;2023-06-14T13:24:24;4.25;;;3.83;;
17917;SDS011;9084;50.956;3.106;2023-06-14T13:26:53;3.67;;;2.95;;
17917;SDS011;9084;50.956;3.106;2023-06-14T13:29:22;4.75;;;3.40;;
17917;SDS011;9084;50.956;3.106;2023-06-14T13:31:48;7.20;;;3.60;;
17917;SDS011;9084;50.956;3.106;2023-06-14T13:34:14;6.20;;;3.35;;
17917;SDS011;9084;50.956;3.106;2023-06-14T13:36:42;3.95;;;3.65;;
17917;SDS011;9084;50.956;3.106;2023-06-14T13:39:08;4.43;;;3.38;;
17917;SDS011;9084;50.956;3.106;2023-06-14T13:41:33;4.82;;;3.85;;
17917;SDS011;9084;50.956;3.106;2023-06-14T13:44:01;4.20;;;3.55;;
17917;SDS011;9084;50.956;3.106;2023-06-14T13:46:30;3.90;;;3.50;;
17917;SDS011;9084;50.956;3.106;2023-06-14T13:48:56;4.18;;;3.40;;
17917;SDS011;9084;50.956;3.106;2023-06-14T13:51:25;5.95;;;3.40;;
17917;SDS011;9084;50.956;3.106;2023-06-14T13:53:53;4.97;;;3.50;;
17917;SDS011;9084;50.956;3.106;2023-06-14T13:56:21;4.55;;;3.63;;
17917;SDS011;9084;50.956;3.106;2023-06-14T13:58:49;7.07;;;3.83;;
17917;SDS011;9084;50.956;3.106;2023-06-14T14:01:15;5.32;;;3.55;;
17917;SDS011;9084;50.956;3.106;2023-06-14T14:03:42;5.88;;;3.53;;
17917;SDS011;9084;50.956;3.106;2023-06-14T14:06:11;5.75;;;3.72;;
17917;SDS011;9084;50.956;3.106;2023-06-14T14:08:38;4.95;;;3.30;;
17917;SDS011;9084;50.956;3.106;2023-06-14T14:11:06;3.58;;;3.28;;
17917;SDS011;9084;50.956;3.106;2023-06-14T14:13:35;4.82;;;3.72;;
17917;SDS011;9084;50.956;3.106;2023-06-14T14:16:03;4.25;;;3.42;;
17917;SDS011;9084;50.956;3.106;2023-06-14T14:18:32;3.67;;;3.38;;
17917;SDS011;9084;50.956;3.106;2023-06-14T14:20:58;6.70;;;3.42;;
17917;SDS011;9084;50.956;3.106;2023-06-14T14:23:28;8.10;;;3.15;;
17917;SDS011;9084;50.956;3.106;2023-06-14T14:25:56;5.32;;;3.95;;
17917;SDS011;9084;50.956;3.106;2023-06-14T14:28:28;6.65;;;3.63;;
17917;SDS011;9084;50.956;3.106;2023-06-14T14:30:54;3.47;;;3.17;;
17917;SDS011;9084;50.956;3.106;2023-06-14T14:33:20;3.97;;;3.10;;
17917;SDS011;9084;50.956;3.106;2023-06-14T14:35:45;5.20;;;3.40;;
17917;SDS011;9084;50.956;3.106;2023-06-14T14:38:12;6.40;;;3.80;;
17917;SDS011;9084;50.956;3.106;2023-06-14T14:40:39;6.53;;;3.92;;
17917;SDS011;9084;50.956;3.106;2023-06-14T14:43:09;3.90;;;3.40;;
17917;SDS011;9084;50.956;3.106;2023-06-14T14:45:37;5.85;;;3.55;;
17917;SDS011;9084;50.956;3.106;2023-06-14T14:48:05;3.63;;;3.33;;
17917;SDS011;9084;50.956;3.106;2023-06-14T14:50:32;7.15;;;3.85;;
17917;SDS011;9084;50.956;3.106;2023-06-14T14:52:58;3.58;;;3.13;;
17917;SDS011;9084;50.956;3.106;2023-06-14T14:55:23;8.18;;;3.97;;
17917;SDS011;9084;50.956;3.106;2023-06-14T14:57:54;5.65;;;3.60;;
17917;SDS011;9084;50.956;3.106;2023-06-14T15:00:20;4.05;;;3.60;;
17917;SDS011;9084;50.956;3.106;2023-06-14T15:02:45;3.88;;;3.45;;
17917;SDS011;9084;50.956;3.106;2023-06-14T15:05:11;4.88;;;3.17;;
17917;SDS011;9084;50.956;3.106;2023-06-14T15:07:39;5.68;;;3.67;;
17917;SDS011;9084;50.956;3.106;2023-06-14T15:10:07;4.40;;;3.20;;
17917;SDS011;9084;50.956;3.106;2023-06-14T15:12:33;4.55;;;3.35;;
17917;SDS011;9084;50.956;3.106;2023-06-14T15:15:00;5.40;;;3.25;;
17917;SDS011;9084;50.956;3.106;2023-06-14T15:17:25;6.22;;;3.47;;
17917;SDS011;9084;50.956;3.106;2023-06-14T15:19:52;5.88;;;3.45;;
17917;SDS011;9084;50.956;3.106;2023-06-14T15:22:18;5.28;;;3.78;;
17917;SDS011;9084;50.956;3.106;2023-06-14T15:24:48;6.28;;;3.38;;
17917;SDS011;9084;50.956;3.106;2023-06-14T15:27:14;9.13;;;3.13;;
17917;SDS011;9084;50.956;3.106;2023-06-14T15:29:42;6.88;;;3.50;;